createdAt,value
2023-01-09T00:02:03.702Z,1.85
2023-01-09T00:04:30.597Z,1.88
2023-01-09T00:06:57.277Z,1.88
2023-01-09T00:09:24.756Z,1.88
2023-01-09T00:11:51.956Z,1.87
2023-01-09T00:14:19.354Z,1.79
2023-01-09T00:16:46.149Z,1.76
2023-01-09T00:19:12.918Z,1.78
2023-01-09T00:21:39.774Z,1.71
2023-01-09T00:24:06.820Z,1.71
2023-01-09T00:26:34.635Z,1.75
2023-01-09T00:29:03.405Z,1.87
2023-01-09T00:31:30.088Z,1.89
2023-01-09T00:34:06.552Z,1.84
2023-01-09T00:36:33.498Z,1.94
2023-01-09T00:39:00.155Z,1.93
2023-01-09T00:41:35.900Z,1.94
2023-01-09T00:44:12.758Z,1.95
2023-01-09T00:46:45.304Z,1.92
2023-01-09T00:49:14.644Z,1.93
2023-01-09T00:51:42.231Z,1.96
2023-01-09T00:54:15.199Z,2.00
2023-01-09T00:56:42.250Z,1.98
2023-01-09T00:59:09.330Z,2.01
2023-01-09T01:01:36.163Z,2.00
2023-01-09T01:04:22.902Z,2.02
2023-01-09T01:07:15.700Z,1.97
2023-01-09T01:09:42.385Z,1.98
2023-01-09T01:12:09.091Z,2.01
2023-01-09T01:14:39.337Z,2.02
2023-01-09T01:17:06.962Z,2.00
2023-01-09T01:19:35.092Z,1.99
2023-01-09T01:22:02.076Z,2.00
2023-01-09T01:24:28.829Z,1.95
2023-01-09T01:26:55.478Z,1.88
2023-01-09T01:29:22.180Z,1.89
2023-01-09T01:31:48.830Z,1.91
2023-01-09T01:34:15.463Z,2.16
2023-01-09T01:36:42.080Z,2.28
2023-01-09T01:39:08.755Z,2.34
2023-01-09T01:41:35.535Z,2.22
2023-01-09T01:44:05.706Z,2.19
2023-01-09T01:46:34.261Z,2.10
2023-01-09T01:49:14.075Z,2.07
2023-01-09T01:51:45.552Z,2.04
2023-01-09T01:54:22.239Z,2.05
2023-01-09T01:56:53.748Z,2.03
2023-01-09T01:59:28.616Z,2.02
2023-01-09T02:01:59.582Z,2.00
2023-01-09T02:04:27.232Z,1.97
2023-01-09T02:06:56.487Z,1.94
2023-01-09T02:09:26.856Z,1.96
2023-01-09T02:11:57.770Z,1.96
2023-01-09T02:14:32.190Z,2.01
2023-01-09T02:17:13.397Z,2.04
2023-01-09T02:20:09.118Z,2.17
2023-01-09T02:22:58.736Z,2.09
2023-01-09T02:25:59.083Z,1.88
2023-01-09T02:28:50.704Z,1.79
2023-01-09T02:31:26.891Z,1.76
2023-01-09T02:34:10.103Z,1.73
2023-01-09T02:37:08.854Z,1.74
2023-01-09T02:39:51.466Z,1.74
2023-01-09T02:42:22.137Z,1.78
2023-01-09T02:44:49.095Z,1.85
2023-01-09T02:47:15.692Z,1.88
2023-01-09T02:50:03.972Z,2.03
2023-01-09T02:52:53.581Z,2.06
2023-01-09T02:55:53.719Z,2.09
2023-01-09T02:58:50.496Z,2.06
2023-01-09T03:01:30.300Z,2.01
2023-01-09T03:04:14.963Z,1.95
2023-01-09T03:07:02.846Z,1.88
2023-01-09T03:09:34.202Z,1.90
2023-01-09T03:12:27.616Z,1.91
2023-01-09T03:14:59.404Z,1.87
2023-01-09T03:17:34.908Z,1.84
2023-01-09T03:20:04.626Z,1.97
2023-01-09T03:22:31.342Z,1.96
2023-01-09T03:24:58.148Z,1.95
2023-01-09T03:27:25.052Z,1.93
2023-01-09T03:29:53.313Z,1.95
2023-01-09T03:32:20.359Z,2.04
2023-01-09T03:34:46.999Z,2.09
2023-01-09T03:37:14.895Z,2.16
2023-01-09T03:39:43.752Z,2.17
2023-01-09T03:42:10.424Z,2.23
2023-01-09T03:44:37.119Z,2.25
2023-01-09T03:47:03.833Z,2.29
2023-01-09T03:49:30.624Z,2.27
2023-01-09T03:51:57.520Z,2.27
2023-01-09T03:54:24.290Z,2.29
2023-01-09T03:56:51.040Z,2.31
2023-01-09T03:59:17.744Z,2.40
2023-01-09T04:01:44.465Z,2.51
2023-01-09T04:04:11.412Z,2.51
2023-01-09T04:06:38.136Z,2.53
2023-01-09T04:09:04.803Z,2.52
2023-01-09T04:11:31.503Z,2.60
2023-01-09T04:13:58.128Z,2.63
2023-01-09T04:16:24.909Z,2.72
2023-01-09T04:18:51.553Z,2.95
2023-01-09T04:21:18.247Z,2.93
2023-01-09T04:23:45.483Z,2.88
2023-01-09T04:26:12.218Z,2.90
2023-01-09T04:28:38.879Z,2.89
2023-01-09T04:31:05.714Z,2.90
2023-01-09T04:33:32.470Z,2.90
2023-01-09T04:35:59.132Z,2.90
2023-01-09T04:38:27.160Z,2.89
2023-01-09T04:40:53.837Z,2.92
2023-01-09T04:43:20.496Z,2.93
2023-01-09T04:45:47.176Z,2.93
2023-01-09T04:48:14.459Z,2.95
2023-01-09T04:50:41.146Z,2.92
2023-01-09T04:53:07.772Z,2.93
2023-01-09T04:55:34.446Z,2.93
2023-01-09T04:58:01.147Z,2.94
2023-01-09T05:00:27.870Z,2.91
2023-01-09T05:02:54.651Z,2.88
2023-01-09T05:05:21.306Z,2.90
2023-01-09T05:07:47.966Z,2.94
2023-01-09T05:10:14.850Z,2.90
2023-01-09T05:12:41.496Z,2.90
2023-01-09T05:15:09.330Z,2.87
2023-01-09T05:17:36.095Z,2.82
2023-01-09T05:20:02.804Z,2.79
2023-01-09T05:22:29.480Z,2.68
2023-01-09T05:24:56.366Z,2.64
2023-01-09T05:27:23.153Z,2.63
2023-01-09T05:29:49.816Z,2.57
2023-01-09T05:32:16.505Z,2.52
2023-01-09T05:34:43.155Z,2.47
2023-01-09T05:37:09.831Z,2.40
2023-01-09T05:39:36.490Z,2.32
2023-01-09T05:42:03.194Z,2.27
2023-01-09T05:44:29.883Z,2.27
2023-01-09T05:46:56.554Z,2.25
2023-01-09T05:49:23.201Z,2.22
2023-01-09T05:51:49.873Z,2.22
2023-01-09T05:54:16.521Z,2.20
2023-01-09T05:56:43.185Z,2.19
2023-01-09T05:59:09.826Z,2.21
2023-01-09T06:01:36.481Z,2.22
2023-01-09T06:04:03.226Z,2.20
2023-01-09T06:06:30.017Z,2.19
2023-01-09T06:08:56.685Z,2.17
2023-01-09T06:11:23.477Z,2.11
2023-01-09T06:13:50.202Z,2.10
2023-01-09T06:16:16.943Z,2.07
2023-01-09T06:18:43.590Z,2.03
2023-01-09T06:21:10.267Z,2.02
2023-01-09T06:23:36.975Z,2.03
2023-01-09T06:26:03.744Z,2.03
2023-01-09T06:28:30.493Z,2.18
2023-01-09T06:30:57.209Z,2.20
2023-01-09T06:33:24.388Z,2.52
2023-01-09T06:35:51.078Z,2.64
2023-01-09T06:38:17.796Z,2.84
2023-01-09T06:40:44.473Z,3.11
2023-01-09T06:43:11.265Z,3.02
2023-01-09T06:45:37.907Z,2.93
2023-01-09T06:48:04.792Z,2.85
2023-01-09T06:50:31.487Z,2.84
2023-01-09T06:52:58.148Z,2.77
2023-01-09T06:55:26.345Z,2.77
2023-01-09T06:57:53.452Z,2.75
2023-01-09T07:00:20.402Z,2.77
2023-01-09T07:02:47.084Z,2.76
2023-01-09T07:05:13.960Z,2.72
2023-01-09T07:07:41.353Z,2.68
2023-01-09T07:10:09.552Z,2.64
2023-01-09T07:12:36.329Z,2.59
2023-01-09T07:15:03.108Z,2.61
2023-01-09T07:17:29.794Z,2.60
2023-01-09T07:19:56.422Z,2.59
2023-01-09T07:22:23.107Z,2.61
2023-01-09T07:24:49.831Z,2.58
2023-01-09T07:27:16.483Z,2.64
2023-01-09T07:29:43.148Z,2.69
2023-01-09T07:32:09.807Z,2.80
2023-01-09T07:34:36.463Z,2.85
2023-01-09T07:37:03.134Z,2.91
2023-01-09T07:39:29.810Z,2.94
2023-01-09T07:41:56.513Z,2.99
2023-01-09T07:44:23.674Z,3.08
2023-01-09T07:46:50.350Z,3.15
2023-01-09T07:49:17.029Z,3.20
2023-01-09T07:51:44.637Z,3.26
2023-01-09T07:54:13.055Z,3.28
2023-01-09T07:56:40.343Z,3.38
2023-01-09T07:59:07.427Z,3.45
2023-01-09T08:01:34.222Z,3.47
2023-01-09T08:04:00.903Z,3.51
2023-01-09T08:06:27.602Z,3.58
2023-01-09T08:08:54.310Z,3.66
2023-01-09T08:11:21.226Z,3.77
2023-01-09T08:13:47.951Z,3.90
2023-01-09T08:16:14.918Z,4.04
2023-01-09T08:18:41.913Z,4.17
2023-01-09T08:21:08.730Z,4.28
2023-01-09T08:23:35.376Z,4.36
2023-01-09T08:26:02.040Z,4.46
2023-01-09T08:28:28.739Z,4.53
2023-01-09T08:30:55.537Z,4.59
2023-01-09T08:33:22.247Z,4.65
2023-01-09T08:35:48.975Z,4.68
2023-01-09T08:38:15.651Z,4.73
2023-01-09T08:40:42.302Z,4.79
2023-01-09T08:43:28.159Z,4.81
2023-01-09T08:46:13.449Z,4.90
2023-01-09T08:48:40.161Z,4.95
2023-01-09T08:51:06.884Z,4.99
2023-01-09T08:53:33.516Z,5.02
2023-01-09T08:56:00.224Z,5.07
2023-01-09T08:58:27.058Z,5.11
2023-01-09T09:00:53.770Z,5.13
2023-01-09T09:03:21.739Z,5.18
2023-01-09T09:05:48.378Z,5.17
2023-01-09T09:08:16.501Z,5.17
2023-01-09T09:10:43.376Z,5.12
2023-01-09T09:13:10.061Z,5.08
2023-01-09T09:15:38.211Z,5.07
2023-01-09T09:18:07.203Z,5.09
2023-01-09T09:20:38.775Z,5.13
2023-01-09T09:23:05.893Z,5.22
2023-01-09T09:25:32.641Z,5.33
2023-01-09T09:28:01.263Z,5.43
2023-01-09T09:30:28.394Z,5.55
2023-01-09T09:32:55.721Z,5.65
2023-01-09T09:35:22.945Z,5.85
2023-01-09T09:38:05.416Z,6.09
2023-01-09T09:41:06.228Z,6.37
2023-01-09T09:44:06.511Z,6.49
2023-01-09T09:46:40.353Z,6.62
2023-01-09T09:49:16.263Z,6.81
2023-01-09T09:52:07.100Z,7.16
2023-01-09T09:54:39.784Z,7.50
2023-01-09T09:57:12.416Z,7.65
2023-01-09T09:59:42.330Z,7.58
2023-01-09T10:02:08.953Z,7.54
2023-01-09T10:04:41.202Z,7.49
2023-01-09T10:07:16.442Z,7.53
2023-01-09T10:09:49.873Z,7.62
2023-01-09T10:12:28.474Z,7.75
2023-01-09T10:14:58.060Z,7.89
2023-01-09T10:17:30.409Z,8.05
2023-01-09T10:20:03.176Z,8.12
2023-01-09T10:22:44.750Z,8.06
2023-01-09T10:25:35.590Z,7.95
2023-01-09T10:28:40.620Z,7.85
2023-01-09T10:31:35.433Z,7.72
2023-01-09T10:34:27.934Z,7.61
2023-01-09T10:37:09.601Z,7.55
2023-01-09T10:39:47.115Z,7.49
2023-01-09T10:42:41.524Z,7.48
2023-01-09T10:45:29.992Z,7.34
2023-01-09T10:48:11.394Z,7.24
2023-01-09T10:50:41.785Z,7.10
2023-01-09T10:53:19.792Z,6.99
2023-01-09T10:55:48.300Z,6.92
2023-01-09T10:58:18.468Z,6.70
2023-01-09T11:00:46.582Z,6.51
2023-01-09T11:03:14.838Z,6.40
2023-01-09T11:05:41.972Z,6.37
2023-01-09T11:08:08.569Z,6.33
2023-01-09T11:10:56.493Z,6.30
2023-01-09T11:13:26.995Z,6.32
2023-01-09T11:16:07.137Z,6.27
2023-01-09T11:18:37.986Z,6.20
2023-01-09T11:21:24.994Z,6.14
2023-01-09T11:23:51.876Z,6.09
2023-01-09T11:26:24.407Z,6.06
2023-01-09T11:29:26.619Z,6.12
2023-01-09T11:32:00.353Z,6.09
2023-01-09T11:34:36.288Z,5.99
2023-01-09T11:37:08.642Z,5.95
2023-01-09T11:39:41.724Z,5.93
2023-01-09T11:42:45.178Z,6.04
2023-01-09T11:45:20.701Z,6.05
2023-01-09T11:47:47.801Z,6.01
2023-01-09T11:50:20.743Z,5.94
2023-01-09T11:53:07.774Z,5.92
2023-01-09T11:55:41.949Z,5.91
2023-01-09T11:58:18.358Z,5.89
2023-01-09T12:00:54.281Z,5.89
2023-01-09T12:03:52.749Z,5.86
2023-01-09T12:06:41.502Z,5.81
2023-01-09T12:09:16.110Z,5.82
2023-01-09T12:11:57.074Z,5.80
2023-01-09T12:14:23.692Z,5.85
2023-01-09T12:16:56.348Z,5.88
2023-01-09T12:19:53.065Z,5.87
2023-01-09T12:22:38.451Z,5.86
2023-01-09T12:25:18.731Z,5.88
2023-01-09T12:28:14.455Z,5.90
2023-01-09T12:30:48.269Z,5.94
2023-01-09T12:33:29.716Z,5.95
2023-01-09T12:36:17.316Z,6.00
2023-01-09T12:39:04.383Z,6.09
2023-01-09T12:41:42.747Z,6.45
2023-01-09T12:44:36.115Z,6.40
2023-01-09T12:47:23.315Z,6.33
2023-01-09T12:50:25.920Z,6.34
2023-01-09T12:53:18.550Z,6.31
2023-01-09T12:55:55.097Z,6.30
2023-01-09T12:58:33.859Z,6.32
2023-01-09T13:01:04.754Z,6.47
2023-01-09T13:03:37.701Z,6.43
2023-01-09T13:06:08.847Z,6.47
2023-01-09T13:08:40.896Z,6.38
2023-01-09T13:11:20.805Z,6.42
2023-01-09T13:13:55.369Z,6.32
2023-01-09T13:16:31.247Z,6.32
2023-01-09T13:19:08.746Z,6.14
2023-01-09T13:21:36.035Z,6.14
2023-01-09T13:24:27.189Z,6.20
2023-01-09T13:27:01.744Z,6.15
2023-01-09T13:29:32.956Z,6.14
2023-01-09T13:32:20.274Z,6.35
2023-01-09T13:34:49.994Z,6.20
2023-01-09T13:37:31.673Z,6.06
2023-01-09T13:40:21.100Z,6.12
2023-01-09T13:43:05.364Z,6.25
2023-01-09T13:45:37.592Z,6.25
2023-01-09T13:48:19.129Z,6.15
2023-01-09T13:50:47.717Z,6.09
2023-01-09T13:53:20.342Z,6.18
2023-01-09T13:55:59.725Z,6.03
2023-01-09T13:58:31.917Z,5.98
2023-01-09T14:01:00.343Z,5.97
2023-01-09T14:03:31.440Z,5.96
2023-01-09T14:05:58.035Z,5.94
2023-01-09T14:08:29.023Z,5.91
2023-01-09T14:11:04.638Z,5.90
2023-01-09T14:13:38.333Z,6.06
2023-01-09T14:16:14.520Z,5.93
2023-01-09T14:18:48.001Z,5.93
2023-01-09T14:21:14.910Z,5.85
2023-01-09T14:24:05.307Z,5.80
2023-01-09T14:26:45.598Z,5.80
2023-01-09T14:29:31.311Z,5.76
2023-01-09T14:32:30.782Z,5.69
2023-01-09T14:35:12.721Z,5.67
2023-01-09T14:37:41.108Z,5.64
2023-01-09T14:40:16.625Z,5.56
2023-01-09T14:42:46.463Z,5.50
2023-01-09T14:45:21.731Z,5.49
2023-01-09T14:47:51.981Z,5.44
2023-01-09T14:50:24.728Z,5.44
2023-01-09T14:52:57.841Z,5.38
2023-01-09T14:55:30.142Z,5.39
2023-01-09T14:58:29.996Z,5.37
2023-01-09T15:01:12.676Z,5.33
2023-01-09T15:03:41.993Z,5.26
2023-01-09T15:06:35.629Z,5.25
2023-01-09T15:09:16.395Z,5.25
2023-01-09T15:11:43.449Z,5.24
2023-01-09T15:14:39.969Z,5.16
2023-01-09T15:17:17.024Z,5.17
2023-01-09T15:19:46.102Z,5.13
2023-01-09T15:22:29.572Z,5.16
2023-01-09T15:24:57.120Z,5.24
2023-01-09T15:27:24.380Z,5.36
2023-01-09T15:29:52.802Z,5.32
2023-01-09T15:32:29.274Z,5.35
2023-01-09T15:34:58.415Z,5.49
2023-01-09T15:37:34.257Z,5.40
2023-01-09T15:40:05.788Z,5.32
2023-01-09T15:42:57.598Z,5.20
2023-01-09T15:45:42.977Z,5.19
2023-01-09T15:48:27.982Z,5.09
2023-01-09T15:51:15.860Z,5.10
2023-01-09T15:53:46.050Z,5.03
2023-01-09T15:56:15.280Z,4.97
2023-01-09T15:58:47.780Z,4.96
2023-01-09T16:01:34.943Z,4.91
2023-01-09T16:04:09.753Z,4.94
2023-01-09T16:06:58.395Z,4.74
2023-01-09T16:09:31.557Z,4.75
2023-01-09T16:12:05.376Z,4.69
2023-01-09T16:14:45.594Z,4.65
2023-01-09T16:17:17.146Z,4.69
2023-01-09T16:19:58.228Z,4.71
2023-01-09T16:22:28.644Z,4.66
2023-01-09T16:24:58.335Z,4.62
2023-01-09T16:27:35.213Z,4.56
2023-01-09T16:30:07.179Z,4.55
2023-01-09T16:32:36.860Z,4.52
2023-01-09T16:35:14.410Z,4.81
2023-01-09T16:37:41.093Z,5.01
2023-01-09T16:40:25.990Z,4.75
2023-01-09T16:43:03.294Z,4.56
2023-01-09T16:45:35.618Z,4.52
2023-01-09T16:48:10.119Z,4.62
2023-01-09T16:50:36.785Z,4.59
2023-01-09T16:53:14.504Z,4.44
2023-01-09T16:55:41.473Z,4.28
2023-01-09T16:58:19.506Z,4.23
2023-01-09T17:00:46.259Z,4.21
2023-01-09T17:03:14.828Z,4.17
2023-01-09T17:05:42.130Z,4.22
2023-01-09T17:08:20.740Z,4.19
2023-01-09T17:10:47.504Z,4.20
2023-01-09T17:13:14.129Z,4.24
2023-01-09T17:15:40.921Z,4.17
2023-01-09T17:18:14.829Z,4.22
2023-01-09T17:20:43.995Z,4.15
2023-01-09T17:23:11.051Z,4.08
2023-01-09T17:25:56.546Z,4.04
2023-01-09T17:28:32.774Z,4.07
2023-01-09T17:31:01.419Z,4.00
2023-01-09T17:33:28.343Z,3.98
2023-01-09T17:35:56.414Z,4.00
2023-01-09T17:38:23.531Z,3.96
2023-01-09T17:40:51.091Z,3.92
2023-01-09T17:43:18.902Z,3.92
2023-01-09T17:45:45.711Z,3.91
2023-01-09T17:48:18.859Z,3.96
2023-01-09T17:50:47.134Z,3.96
2023-01-09T17:53:14.563Z,4.19
2023-01-09T17:55:41.898Z,4.12
2023-01-09T17:58:26.475Z,4.16
2023-01-09T18:00:53.401Z,4.11
2023-01-09T18:03:23.052Z,4.11
2023-01-09T18:05:50.206Z,4.13
2023-01-09T18:08:16.902Z,4.12
2023-01-09T18:10:48.347Z,4.08
2023-01-09T18:13:16.296Z,4.40
2023-01-09T18:15:45.072Z,4.24
2023-01-09T18:18:13.168Z,4.12
2023-01-09T18:20:41.378Z,4.08
2023-01-09T18:23:10.982Z,4.09
2023-01-09T18:25:44.591Z,4.04
2023-01-09T18:28:16.870Z,4.00
2023-01-09T18:30:45.922Z,4.00
2023-01-09T18:33:12.992Z,3.97
2023-01-09T18:35:39.957Z,3.97
2023-01-09T18:38:07.860Z,3.97
2023-01-09T18:40:34.677Z,3.98
2023-01-09T18:43:04.940Z,3.99
2023-01-09T18:45:32.917Z,4.13
2023-01-09T18:48:00.031Z,4.11
2023-01-09T18:50:26.674Z,4.08
2023-01-09T18:52:53.910Z,4.03
2023-01-09T18:55:21.945Z,3.97
2023-01-09T18:57:48.926Z,3.99
2023-01-09T19:00:15.916Z,3.98
2023-01-09T19:02:42.617Z,3.94
2023-01-09T19:05:09.819Z,3.97
2023-01-09T19:07:36.539Z,4.03
2023-01-09T19:10:03.348Z,3.99
2023-01-09T19:12:30.050Z,3.92
2023-01-09T19:14:56.774Z,3.86
2023-01-09T19:17:26.506Z,3.94
2023-01-09T19:19:53.962Z,3.89
2023-01-09T19:22:21.289Z,3.94
2023-01-09T19:24:48.187Z,3.94
2023-01-09T19:27:14.808Z,3.93
2023-01-09T19:29:41.474Z,3.95
2023-01-09T19:32:08.592Z,4.01
2023-01-09T19:34:36.429Z,3.96
2023-01-09T19:37:12.767Z,3.92
2023-01-09T19:39:43.285Z,3.95
2023-01-09T19:42:13.744Z,4.07
2023-01-09T19:44:40.866Z,3.94
2023-01-09T19:47:10.808Z,3.94
2023-01-09T19:49:40.426Z,4.02
2023-01-09T19:52:08.223Z,3.94
2023-01-09T19:54:36.388Z,3.93
2023-01-09T19:57:06.233Z,3.91
2023-01-09T19:59:36.225Z,3.96
2023-01-09T20:02:03.431Z,3.96
2023-01-09T20:04:30.112Z,3.86
2023-01-09T20:06:56.939Z,3.82
2023-01-09T20:09:27.341Z,3.78
2023-01-09T20:11:54.089Z,3.79
2023-01-09T20:14:22.338Z,3.75
2023-01-09T20:16:50.037Z,3.74
2023-01-09T20:19:17.150Z,3.72
2023-01-09T20:21:43.990Z,3.69
2023-01-09T20:24:14.492Z,3.73
2023-01-09T20:26:41.786Z,3.73
2023-01-09T20:29:09.007Z,3.67
2023-01-09T20:31:36.080Z,3.57
2023-01-09T20:34:03.358Z,3.59
2023-01-09T20:36:31.777Z,3.61
2023-01-09T20:39:00.711Z,3.59
2023-01-09T20:41:29.477Z,3.61
2023-01-09T20:43:59.956Z,3.62
2023-01-09T20:46:29.965Z,3.67
2023-01-09T20:49:03.358Z,3.66
2023-01-09T20:51:31.218Z,3.68
2023-01-09T20:53:58.545Z,3.81
2023-01-09T20:56:26.706Z,3.81
2023-01-09T20:58:55.247Z,3.79
2023-01-09T21:01:23.217Z,3.72
2023-01-09T21:03:52.713Z,3.63
2023-01-09T21:06:21.938Z,3.65
2023-01-09T21:08:51.075Z,3.60
2023-01-09T21:11:18.353Z,3.58
2023-01-09T21:13:46.245Z,3.59
2023-01-09T21:16:20.300Z,3.54
2023-01-09T21:18:48.664Z,3.56
2023-01-09T21:21:21.417Z,3.51
2023-01-09T21:23:54.146Z,3.54
2023-01-09T21:26:24.442Z,3.54
2023-01-09T21:28:55.179Z,3.54
2023-01-09T21:31:25.595Z,3.52
2023-01-09T21:33:54.470Z,3.50
2023-01-09T21:36:21.863Z,3.51
2023-01-09T21:38:48.923Z,3.48
2023-01-09T21:41:37.475Z,3.52
2023-01-09T21:44:23.368Z,3.47
2023-01-09T21:46:57.570Z,3.41
2023-01-09T21:49:26.660Z,3.37
2023-01-09T21:51:55.010Z,3.36
2023-01-09T21:54:26.235Z,3.42
2023-01-09T21:56:56.300Z,3.43
2023-01-09T21:59:23.633Z,3.40
2023-01-09T22:01:51.489Z,3.38
2023-01-09T22:04:20.820Z,3.38
2023-01-09T22:06:47.528Z,3.36
2023-01-09T22:09:16.130Z,3.35
2023-01-09T22:11:43.564Z,3.34
2023-01-09T22:14:17.398Z,3.31
2023-01-09T22:16:46.458Z,3.24
2023-01-09T22:19:15.653Z,3.44
2023-01-09T22:21:42.315Z,3.38
2023-01-09T22:24:13.458Z,3.28
2023-01-09T22:26:40.719Z,3.31
2023-01-09T22:29:07.504Z,3.30
2023-01-09T22:31:35.010Z,3.36
2023-01-09T22:34:05.025Z,3.33
2023-01-09T22:36:31.911Z,3.29
2023-01-09T22:39:01.249Z,3.26
2023-01-09T22:41:29.888Z,3.25
2023-01-09T22:43:56.869Z,3.14
2023-01-09T22:46:23.520Z,3.13
2023-01-09T22:48:50.423Z,3.13
2023-01-09T22:51:20.091Z,3.13
2023-01-09T22:53:47.011Z,3.08
2023-01-09T22:56:16.127Z,3.09
2023-01-09T22:58:43.226Z,3.16
2023-01-09T23:01:13.449Z,3.11
2023-01-09T23:03:41.326Z,3.10
2023-01-09T23:06:14.355Z,3.09
2023-01-09T23:08:41.703Z,3.16
2023-01-09T23:11:11.707Z,3.08
2023-01-09T23:13:38.722Z,3.05
2023-01-09T23:16:06.599Z,3.07
2023-01-09T23:18:34.085Z,3.04
2023-01-09T23:21:03.519Z,2.97
2023-01-09T23:23:32.090Z,2.99
2023-01-09T23:26:02.468Z,3.04
2023-01-09T23:28:30.476Z,3.00
2023-01-09T23:30:57.822Z,2.96
2023-01-09T23:33:25.368Z,3.00
2023-01-09T23:35:52.061Z,3.02
2023-01-09T23:38:18.751Z,3.04
2023-01-09T23:40:45.467Z,3.07
2023-01-09T23:43:13.649Z,3.14
2023-01-09T23:45:43.371Z,3.26
2023-01-09T23:48:12.744Z,3.23
2023-01-09T23:50:42.832Z,3.15
2023-01-09T23:53:09.914Z,3.04
2023-01-09T23:55:37.192Z,2.93
2023-01-09T23:58:03.947Z,2.92
